Terminal Aerodrome Forecast
Issued by NWS

Home | Current Version | Previous Version | Text Only | Print | Product List | Glossary On
Versions: 1 2 3 4 5 6 7 8 9 10 11 12 13 14 15
324
FTAK31 PAJN 212040 CCA
TAFAWG
TAF COR
PAWG 212040Z 2118/2218 12006KT 6SM -RA BR FEW005 BKN030 OVC050
      TEMPO 2119/2122 4SM RA BR SCT007 OVC025
     FM212200 12008KT 4SM RA BR SCT007 OVC020
     FM220000 12008KT 4SM RA BR SCT007 OVC020 WS020/16040KT
     FM220600 12010KT 4SM RA BR BKN007 OVC015 WS020/17035KT
     FM221200 11006KT 4SM -RA BR OVC015
      AMD LTD TO CLD VIS AND WIND 2206/2215=

USA.gov is the U.S. government's official web portal to all federal, state and local government web resources and services.